Terminal Aerodrome Forecast
Issued by NWS

Current Version | Previous Version | Text Only | Print | Product List | Glossary Off
Versions: 1 2 3 4 5 6 7 8 9 10 11 12 13 14 15 16 17 18 19 20 21 22 23 24 25

224
FTUS41 KILN 290302 AAC
TAFLUK
TAF AMD
KLUK 290302Z 2903/2924 13006KT P6SM VCTS OVC040CB
      TEMPO 2903/2906 3SM -TSRA OVC025CB
     FM290600 06004KT 4SM SHRA VCTS OVC025CB
      TEMPO 2906/2909 TSRA OVC015CB
     FM291000 04004KT P6SM -SHRA VCTS BKN015CB OVC025
     FM291300 20009KT P6SM VCSH OVC025
     FM291600 20007KT P6SM SCT035=

USA.gov is the U.S. government's official web portal to all federal, state and local government web resources and services.